createdAt,value
2023-05-29T00:04:02.176Z,7.18
2023-05-29T00:09:03.862Z,7.20
2023-05-29T00:14:06.062Z,6.22
2023-05-29T00:19:10.005Z,7.57
2023-05-29T00:24:11.533Z,8.38
2023-05-29T00:29:13.043Z,5.65
2023-05-29T00:34:14.496Z,8.90
2023-05-29T00:39:16.425Z,6.70
2023-05-29T00:44:22.188Z,6.47
2023-05-29T00:49:24.482Z,11.35
2023-05-29T00:54:31.116Z,7.60
2023-05-29T00:59:34.298Z,6.18
2023-05-29T01:04:35.866Z,8.85
2023-05-29T01:09:38.090Z,7.32
2023-05-29T01:14:59.019Z,6.95
2023-05-29T01:20:06.033Z,8.55
2023-05-29T01:25:36.365Z,8.27
2023-05-29T01:30:39.197Z,8.43
2023-05-29T01:35:40.910Z,6.85
2023-05-29T01:40:42.379Z,9.40
2023-05-29T01:45:44.756Z,9.50
2023-05-29T01:50:47.281Z,7.60
2023-05-29T01:55:49.037Z,8.45
2023-05-29T02:00:50.644Z,7.30
2023-05-29T02:05:52.117Z,6.68
2023-05-29T02:10:54.349Z,9.15
2023-05-29T02:15:56.043Z,14.20
2023-05-29T02:20:57.865Z,11.38
2023-05-29T02:25:59.673Z,8.02
2023-05-29T02:31:01.183Z,11.30
2023-05-29T02:36:02.640Z,10.43
2023-05-29T02:41:04.182Z,6.57
2023-05-29T02:46:05.787Z,7.30
2023-05-29T02:51:07.444Z,7.28
2023-05-29T02:56:10.107Z,9.02
2023-05-29T03:01:11.921Z,11.90
2023-05-29T03:06:18.909Z,8.57
2023-05-29T03:11:22.101Z,10.65
2023-05-29T03:16:23.686Z,10.82
2023-05-29T03:21:25.528Z,9.10
2023-05-29T03:26:27.584Z,10.68
2023-05-29T03:31:29.162Z,11.15
2023-05-29T03:36:30.619Z,9.73
2023-05-29T03:41:32.066Z,15.57
2023-05-29T03:46:33.556Z,10.60
2023-05-29T03:51:35.151Z,11.93
2023-05-29T03:56:37.092Z,11.45
2023-05-29T04:01:38.715Z,11.65
2023-05-29T04:06:40.245Z,10.60
2023-05-29T04:11:42.783Z,12.25
2023-05-29T04:16:44.523Z,10.88
2023-05-29T04:21:46.414Z,13.13
2023-05-29T04:26:48.009Z,14.75
2023-05-29T04:31:49.525Z,12.55
2023-05-29T04:36:50.970Z,11.80
2023-05-29T04:41:52.946Z,13.15
2023-05-29T04:46:54.507Z,12.85
2023-05-29T04:51:56.104Z,14.73
2023-05-29T04:56:57.554Z,16.80
2023-05-29T05:01:59.044Z,16.42
2023-05-29T05:07:00.533Z,18.70
2023-05-29T05:12:02.440Z,14.57
2023-05-29T05:17:04.071Z,12.63
2023-05-29T05:22:05.517Z,13.50
2023-05-29T05:27:07.467Z,10.73
2023-05-29T05:32:08.990Z,12.13
2023-05-29T05:37:11.088Z,12.27
2023-05-29T05:42:12.523Z,9.82
2023-05-29T05:47:14.337Z,7.68
2023-05-29T05:52:16.078Z,11.07
2023-05-29T05:57:17.536Z,8.95
2023-05-29T06:02:19.126Z,12.43
2023-05-29T06:07:20.648Z,9.10
2023-05-29T06:12:22.196Z,10.68
2023-05-29T06:17:24.730Z,11.35
2023-05-29T06:22:26.222Z,8.75
2023-05-29T06:27:27.687Z,10.00
2023-05-29T06:32:29.649Z,9.63
2023-05-29T06:37:31.519Z,14.85
2023-05-29T06:42:33.009Z,11.15
2023-05-29T06:47:34.573Z,9.25
2023-05-29T06:52:36.209Z,14.15
2023-05-29T06:57:37.681Z,7.22
2023-05-29T07:02:39.282Z,8.77
2023-05-29T07:07:40.841Z,8.00
2023-05-29T07:12:42.319Z,8.88
2023-05-29T07:17:43.821Z,9.60
2023-05-29T07:22:45.677Z,5.65
2023-05-29T07:27:47.176Z,8.40
2023-05-29T07:32:48.663Z,9.02
2023-05-29T07:37:50.857Z,7.13
2023-05-29T07:42:52.339Z,4.25
2023-05-29T07:47:53.809Z,7.78
2023-05-29T07:52:56.997Z,11.82
2023-05-29T07:57:58.380Z,5.70
2023-05-29T08:02:59.961Z,7.93
2023-05-29T08:08:01.679Z,6.53
2023-05-29T08:13:03.215Z,4.22
2023-05-29T08:18:05.443Z,3.05
2023-05-29T08:23:07.014Z,4.20
2023-05-29T08:28:08.484Z,5.78
2023-05-29T08:33:10.072Z,2.40
2023-05-29T08:38:11.610Z,6.88
2023-05-29T08:43:20.919Z,2.90
2023-05-29T08:48:26.339Z,6.10
2023-05-29T08:53:27.883Z,7.30
2023-05-29T08:58:29.516Z,3.80
2023-05-29T09:03:31.078Z,3.83
2023-05-29T09:08:34.087Z,4.28
2023-05-29T09:13:35.858Z,7.20
2023-05-29T09:18:37.354Z,5.22
2023-05-29T09:23:38.809Z,5.90
2023-05-29T09:28:40.974Z,3.50
2023-05-29T09:33:49.907Z,3.65
2023-05-29T09:38:54.958Z,6.35
2023-05-29T09:44:01.903Z,7.97
2023-05-29T09:49:06.825Z,5.10
2023-05-29T09:54:18.215Z,7.53
2023-05-29T09:59:22.188Z,11.48
2023-05-29T10:04:25.259Z,11.65
2023-05-29T10:09:28.455Z,4.72
2023-05-29T10:14:32.844Z,4.60
2023-05-29T10:19:37.918Z,6.88
2023-05-29T10:24:39.749Z,6.95
2023-05-29T10:29:54.554Z,5.00
2023-05-29T10:35:09.978Z,4.63
2023-05-29T10:40:15.719Z,4.50
2023-05-29T10:45:29.452Z,6.10
2023-05-29T10:50:39.378Z,4.65
2023-05-29T10:55:42.067Z,4.00
2023-05-29T11:00:43.981Z,5.22
2023-05-29T11:06:09.095Z,5.90
2023-05-29T11:11:16.754Z,5.75
2023-05-29T11:16:37.984Z,4.85
2023-05-29T11:21:54.126Z,6.38
2023-05-29T11:26:57.467Z,6.75
2023-05-29T11:32:03.984Z,7.00
2023-05-29T11:37:05.987Z,3.65
2023-05-29T11:42:08.646Z,3.90
2023-05-29T11:47:10.147Z,5.25
2023-05-29T11:57:22.244Z,4.55
2023-05-29T12:02:26.265Z,6.95
2023-05-29T12:07:27.810Z,5.50
2023-05-29T12:12:30.528Z,3.92
2023-05-29T12:17:32.591Z,7.25
2023-05-29T12:22:36.046Z,4.80
2023-05-29T12:27:43.491Z,3.25
2023-05-29T12:32:54.250Z,5.40
2023-05-29T12:38:00.927Z,6.38
2023-05-29T12:43:04.472Z,5.47
2023-05-29T12:48:10.872Z,5.70
2023-05-29T12:53:15.047Z,4.40
2023-05-29T12:58:16.964Z,5.22
2023-05-29T13:03:19.013Z,4.70
2023-05-29T13:08:21.376Z,3.60
2023-05-29T13:13:23.941Z,3.67
2023-05-29T13:18:25.454Z,4.18
2023-05-29T13:23:29.062Z,6.95
2023-05-29T13:28:30.870Z,4.28
2023-05-29T13:33:32.815Z,5.03
2023-05-29T13:38:34.262Z,6.05
2023-05-29T13:43:43.645Z,6.88
2023-05-29T13:48:46.483Z,4.90
2023-05-29T13:53:47.954Z,2.90
2023-05-29T13:58:49.413Z,5.13
2023-05-29T14:03:51.104Z,4.47
2023-05-29T14:08:52.886Z,3.80
2023-05-29T14:13:54.340Z,3.88
2023-05-29T14:18:55.796Z,3.47
2023-05-29T14:23:57.261Z,4.85
2023-05-29T14:29:09.386Z,4.28
2023-05-29T14:34:15.331Z,5.22
2023-05-29T14:39:16.842Z,5.25
2023-05-29T14:44:18.918Z,4.43
2023-05-29T14:49:20.819Z,4.97
2023-05-29T14:54:22.324Z,5.72
2023-05-29T14:59:24.477Z,3.67
2023-05-29T15:04:26.087Z,8.30
2023-05-29T15:09:27.774Z,5.93
2023-05-29T15:14:29.421Z,6.53
2023-05-29T15:19:31.526Z,4.45
2023-05-29T15:24:32.994Z,5.50
2023-05-29T15:29:36.072Z,6.15
2023-05-29T15:34:37.581Z,4.63
2023-05-29T15:39:39.771Z,6.57
2023-05-29T15:44:41.209Z,5.03
2023-05-29T15:49:42.656Z,5.97
2023-05-29T15:54:44.346Z,3.72
2023-05-29T15:59:45.932Z,8.40
2023-05-29T16:04:59.020Z,4.93
2023-05-29T16:10:07.894Z,5.30
2023-05-29T16:15:09.703Z,5.35
2023-05-29T16:20:12.149Z,9.95
2023-05-29T16:25:13.728Z,7.03
2023-05-29T16:30:15.370Z,6.80
2023-05-29T16:35:16.982Z,5.22
2023-05-29T16:40:21.109Z,8.60
2023-05-29T16:45:22.644Z,6.13
2023-05-29T16:50:24.824Z,6.70
2023-05-29T16:55:26.667Z,7.32
2023-05-29T17:00:28.341Z,5.70
2023-05-29T17:05:29.772Z,9.27
2023-05-29T17:10:34.066Z,5.50
2023-05-29T17:15:35.533Z,6.95
2023-05-29T17:20:37.080Z,8.10
2023-05-29T17:25:38.598Z,6.72
2023-05-29T17:30:40.084Z,9.20
2023-05-29T17:35:41.572Z,6.07
2023-05-29T17:40:43.077Z,5.03
2023-05-29T17:45:47.090Z,9.00
2023-05-29T17:50:48.773Z,6.88
2023-05-29T17:55:50.381Z,7.38
2023-05-29T18:00:52.256Z,8.90
2023-05-29T18:05:54.946Z,7.75
2023-05-29T18:10:57.003Z,8.85
2023-05-29T18:15:58.719Z,8.57
2023-05-29T18:21:00.348Z,7.68
2023-05-29T18:26:02.077Z,8.10
2023-05-29T18:31:03.698Z,8.43
2023-05-29T18:36:05.368Z,7.82
2023-05-29T18:41:07.011Z,9.10
2023-05-29T18:46:08.649Z,9.57
2023-05-29T18:51:11.463Z,7.57
2023-05-29T18:56:13.005Z,6.20
2023-05-29T19:01:29.973Z,7.70
2023-05-29T19:06:33.537Z,6.82
2023-05-29T19:11:35.089Z,8.77
2023-05-29T19:16:36.541Z,7.60
2023-05-29T19:21:38.420Z,6.97
2023-05-29T19:26:42.776Z,6.30
2023-05-29T19:31:44.291Z,7.50
2023-05-29T19:36:45.833Z,7.72
2023-05-29T19:41:47.305Z,8.98
2023-05-29T19:46:49.085Z,7.97
2023-05-29T19:51:59.107Z,11.85
2023-05-29T19:57:01.014Z,7.93
2023-05-29T20:02:02.855Z,7.35
2023-05-29T20:07:04.576Z,11.38
2023-05-29T20:12:06.973Z,8.43
2023-05-29T20:17:08.676Z,8.68
2023-05-29T20:22:10.220Z,8.95
2023-05-29T20:27:11.894Z,9.20
2023-05-29T20:32:13.414Z,5.63
2023-05-29T20:37:15.493Z,5.40
2023-05-29T20:42:17.532Z,7.80
2023-05-29T20:47:19.669Z,7.22
2023-05-29T20:52:21.977Z,8.10
2023-05-29T20:57:23.554Z,8.63
2023-05-29T21:02:25.067Z,7.38
2023-05-29T21:07:35.281Z,6.18
2023-05-29T21:12:37.167Z,5.72
2023-05-29T21:17:38.783Z,8.50
2023-05-29T21:22:40.535Z,6.53
2023-05-29T21:27:42.009Z,6.18
2023-05-29T21:32:43.652Z,7.35
2023-05-29T21:37:45.658Z,8.88
2023-05-29T21:42:51.762Z,6.63
2023-05-29T21:47:54.943Z,5.97
2023-05-29T21:52:56.709Z,7.60
2023-05-29T21:57:58.164Z,5.65
2023-05-29T22:02:59.888Z,5.45
2023-05-29T22:08:01.428Z,6.63
2023-05-29T22:13:03.691Z,7.90
2023-05-29T22:18:05.627Z,7.05
2023-05-29T22:23:17.046Z,6.82
2023-05-29T22:28:19.714Z,8.50
2023-05-29T22:33:21.891Z,7.65
2023-05-29T22:38:23.379Z,9.95
2023-05-29T22:43:24.844Z,7.47
2023-05-29T22:48:27.050Z,8.90
2023-05-29T22:53:28.756Z,8.55
2023-05-29T22:58:30.217Z,7.82
2023-05-29T23:03:31.845Z,10.23
2023-05-29T23:08:33.450Z,7.85
2023-05-29T23:13:34.947Z,7.30
2023-05-29T23:18:37.017Z,6.82
2023-05-29T23:23:38.797Z,7.75
2023-05-29T23:28:40.702Z,9.48
2023-05-29T23:33:42.898Z,7.95
2023-05-29T23:38:44.359Z,11.38
2023-05-29T23:43:46.184Z,9.35
2023-05-29T23:48:48.708Z,6.70
2023-05-29T23:53:50.259Z,7.03
2023-05-29T23:58:52.389Z,6.57
